To NAV CANADA Home Page Login to a new session Search on AWWS site Disclaimer Vers la page française équivalente Tips FAQ What's new on the site To the Forecasts and Observations / NOTAM section To "File a Flight Plan" website Publications and other links Update of the User's profile FIC Telephone Numbers My Weather Data Folder Route Weather Data Regional Weather Data Local Weather Data To the Forecasts and Observations / NOTAM section
Request Generated 03/19/2019 at 23:17:44 UTC . Weather information available at that time is displayed.

METAR/TAF

QUAQTAQ/QC    

LWIS CYHA 192300Z AUTO 27004KT 210V300 M18/M21 A2968=
LWIS CYHA 192200Z AUTO 27005KT M18/M21 A2968=
METAR CYHA 192100Z 26006KT 10SM FEW008 FEW049 BKN110 M17/M21 A2969 RMK ST1SC1AS7 ST TR SC TR SNW/CVR TR LOOSE LASTS TFD OBS/NEXT 201
300UTC SLP059=

*** REMARK        : Forecast period has ended; this was the last TAF issued
*** REMARQUE : La période de prévision est échue; ceci était le dernier TAF qui a été émis
TAF CYHA 191346Z 1914/1921 27005KT P6SM OVC070 TEMPO 1914/1917 P6SM
-SN
FM191700 29010KT P6SM -SN OVC050 TEMPO 1917/1921 4SM -SN
RMK NXT FCST WILL BE ISSUED AT 201345Z=
Your time UTC time
Weather data provided by Environment Canada and NAV CANADA